Time;durP1;ratioP1;P1;durP2;ratioP2;P2;SDS_P1;SDS_P2;PMS_P1;PMS_P2;Temp;Humidity;BMP_temperature;BMP_pressure;BME280_temperature;BME280_humidity;BME280_pressure;Samples;Min_cycle;Max_cycle;Signal;HPM_P1;HPM_P2
2023/01/09 00:02:17;;;;;;;5.43;1.20;;;6.30;99.90;;;;;;5073465;27;20290;-67
2023/01/09 00:04:43;;;;;;;1.90;1.30;;;6.30;99.90;;;;;;5063144;27;20948;-68
2023/01/09 00:07:10;;;;;;;3.70;1.20;;;6.30;99.90;;;;;;5062930;27;20957;-68
2023/01/09 00:09:37;;;;;;;2.30;1.37;;;6.30;99.90;;;;;;5058468;28;20235;-68
2023/01/09 00:12:04;;;;;;;2.07;1.50;;;6.30;99.90;;;;;;5060123;28;20325;-67
2023/01/09 00:14:31;;;;;;;2.10;1.60;;;6.30;99.90;;;;;;5065536;28;20314;-68
2023/01/09 00:17:00;;;;;;;3.27;1.40;;;6.30;99.90;;;;;;5063869;28;20696;-67
2023/01/09 00:19:26;;;;;;;1.73;1.20;;;6.30;99.90;;;;;;5081522;28;20295;-67
2023/01/09 00:21:53;;;;;;;1.60;1.23;;;6.30;99.90;;;;;;5066428;28;20296;-68
2023/01/09 00:24:20;;;;;;;3.60;1.43;;;6.30;99.90;;;;;;5073789;28;20362;-67
2023/01/09 00:26:47;;;;;;;1.40;1.20;;;6.40;99.90;;;;;;5047568;28;20203;-68
2023/01/09 00:29:14;;;;;;;1.20;1.10;;;6.40;99.90;;;;;;5052768;28;20206;-68
2023/01/09 00:31:40;;;;;;;2.63;1.30;;;6.40;99.90;;;;;;5052497;28;20810;-67
2023/01/09 00:34:10;;;;;;;1.50;1.10;;;6.50;99.90;;;;;;5079372;28;20289;-67
2023/01/09 00:36:37;;;;;;;2.40;1.30;;;6.50;99.90;;;;;;5071055;28;20211;-68
2023/01/09 00:39:04;;;;;;;1.10;1.10;;;6.50;99.90;;;;;;5058317;28;20294;-67
2023/01/09 00:41:36;;;;;;;1.67;1.10;;;6.50;99.90;;;;;;5057141;28;20629;-68
2023/01/09 00:44:07;;;;;;;1.40;1.30;;;6.50;99.90;;;;;;5055055;28;22490;-68
2023/01/09 00:46:37;;;;;;;1.50;1.40;;;6.50;99.90;;;;;;5051565;28;20310;-68
2023/01/09 00:49:07;;;;;;;1.30;1.20;;;6.60;99.90;;;;;;5078243;28;20409;-68
2023/01/09 00:51:37;;;;;;;2.53;1.20;;;6.60;99.90;;;;;;5072007;28;20231;-68
2023/01/09 00:54:05;;;;;;;2.43;1.20;;;6.60;99.90;;;;;;5056135;28;20237;-67
2023/01/09 00:56:34;;;;;;;3.43;1.10;;;6.60;99.90;;;;;;5052532;28;20840;-68
2023/01/09 00:59:01;;;;;;;1.70;1.37;;;6.60;99.90;;;;;;5067917;28;20249;-68
2023/01/09 01:01:28;;;;;;;1.40;1.30;;;6.60;99.90;;;;;;5036638;28;20923;-68
2023/01/09 01:03:55;;;;;;;2.33;1.40;;;6.60;99.90;;;;;;5078711;28;20196;-68
2023/01/09 01:09:08;;;;;;;1.37;1.23;;;6.60;99.90;;;;;;5058356;28;20222;-68
2023/01/09 01:11:35;;;;;;;2.20;1.30;;;6.70;99.90;;;;;;5063454;28;20212;-68
2023/01/09 01:14:02;;;;;;;2.33;1.30;;;6.70;99.90;;;;;;5061574;28;20337;-67
2023/01/09 01:16:29;;;;;;;1.57;1.23;;;6.70;99.90;;;;;;5059606;28;21009;-66
2023/01/09 01:18:56;;;;;;;1.23;1.13;;;6.70;99.90;;;;;;5048634;28;20668;-68
2023/01/09 01:21:23;;;;;;;2.50;1.30;;;6.80;99.90;;;;;;5066781;28;21055;-68
2023/01/09 01:23:50;;;;;;;1.30;1.17;;;6.80;99.90;;;;;;5077149;28;20214;-68
2023/01/09 01:26:18;;;;;;;1.40;1.30;;;6.80;99.90;;;;;;5051738;28;21209;-68
2023/01/09 01:28:45;;;;;;;2.03;1.20;;;6.80;99.90;;;;;;5062663;28;20283;-68
2023/01/09 01:31:20;;;;;;;1.73;1.40;;;6.80;99.90;;;;;;5056166;27;20299;-68
2023/01/09 01:33:47;;;;;;;3.13;1.50;;;6.80;99.90;;;;;;5055081;27;20264;-68
2023/01/09 01:36:16;;;;;;;3.37;1.27;;;6.80;99.90;;;;;;5080580;27;20453;-68
2023/01/09 01:38:43;;;;;;;1.30;1.10;;;6.90;99.90;;;;;;5073112;27;20203;-68
2023/01/09 01:41:10;;;;;;;1.60;1.27;;;6.90;99.90;;;;;;5070139;27;20381;-68
2023/01/09 01:43:53;;;;;;;4.77;1.33;;;6.90;99.90;;;;;;5064687;27;20273;-67
2023/01/09 01:46:20;;;;;;;3.57;1.53;;;6.90;99.90;;;;;;5064716;27;20317;-68
2023/01/09 01:48:49;;;;;;;2.80;1.73;;;6.90;99.90;;;;;;5043101;27;20207;-68
2023/01/09 01:51:18;;;;;;;3.07;1.80;;;6.90;99.90;;;;;;5076513;27;20343;-67
2023/01/09 01:53:50;;;;;;;7.37;1.30;;;6.90;99.90;;;;;;5074308;27;20932;-68
2023/01/09 01:56:19;;;;;;;2.77;1.40;;;6.90;99.90;;;;;;5074279;28;20287;-68
2023/01/09 01:58:50;;;;;;;3.00;1.47;;;6.90;99.90;;;;;;5065753;27;20235;-67
2023/01/09 02:01:18;;;;;;;2.97;1.23;;;6.90;99.90;;;;;;5062006;27;20264;-68
2023/01/09 02:03:46;;;;;;;3.50;1.60;;;7.00;99.90;;;;;;5051779;27;20320;-68
2023/01/09 02:06:14;;;;;;;3.00;1.30;;;7.00;99.90;;;;;;5075470;28;20318;-67
2023/01/09 02:08:40;;;;;;;6.00;1.70;;;7.00;99.90;;;;;;5072682;27;20300;-68
2023/01/09 02:11:07;;;;;;;3.13;1.87;;;6.90;99.90;;;;;;5070508;28;20295;-69
2023/01/09 02:13:37;;;;;;;2.30;1.50;;;6.90;99.90;;;;;;5061437;27;20204;-69
2023/01/09 02:16:21;;;;;;;2.63;1.87;;;6.90;99.90;;;;;;5069861;27;20203;-68
2023/01/09 02:18:51;;;;;;;3.53;1.40;;;7.00;99.90;;;;;;5070787;27;20298;-68
2023/01/09 02:21:38;;;;;;;3.30;1.63;;;6.90;99.90;;;;;;5054369;27;20690;-68
2023/01/09 02:24:16;;;;;;;1.77;1.40;;;7.00;99.90;;;;;;5068800;27;20314;-68
2023/01/09 02:27:03;;;;;;;2.07;1.33;;;7.00;99.90;;;;;;5070425;27;21041;-69
2023/01/09 02:30:10;;;;;;;4.13;1.60;;;7.10;99.90;;;;;;5060057;28;20342;-68
2023/01/09 02:33:02;;;;;;;2.70;1.73;;;7.00;99.90;;;;;;5062947;27;20199;-68
2023/01/09 02:35:42;;;;;;;4.37;1.70;;;7.10;99.90;;;;;;5049632;27;20389;-68
2023/01/09 02:38:17;;;;;;;1.67;1.33;;;7.00;99.90;;;;;;5077346;27;20195;-68
2023/01/09 02:40:50;;;;;;;3.27;1.13;;;7.10;99.90;;;;;;5072505;27;20199;-68
2023/01/09 02:43:17;;;;;;;1.47;1.20;;;7.10;99.90;;;;;;5066140;28;20300;-68
2023/01/09 02:45:44;;;;;;;2.03;1.40;;;7.10;99.90;;;;;;5054033;27;20223;-68
2023/01/09 02:48:13;;;;;;;1.67;1.20;;;7.10;99.90;;;;;;5063645;27;20346;-68
2023/01/09 02:50:47;;;;;;;4.40;1.70;;;7.10;99.90;;;;;;5045117;27;20376;-69
2023/01/09 02:53:37;;;;;;;5.77;1.60;;;7.10;99.90;;;;;;5079542;27;20953;-69
2023/01/09 02:56:33;;;;;;;3.70;1.43;;;7.10;99.90;;;;;;5073851;28;20295;-68
2023/01/09 02:59:18;;;;;;;4.40;1.40;;;7.20;99.90;;;;;;5060015;27;20379;-68
2023/01/09 03:01:54;;;;;;;1.70;1.40;;;7.10;99.90;;;;;;5066567;28;20245;-68
2023/01/09 03:04:30;;;;;;;1.57;1.40;;;7.00;99.90;;;;;;5068633;27;20391;-68
2023/01/09 03:07:02;;;;;;;3.63;1.33;;;7.10;99.90;;;;;;5050804;27;21025;-68
2023/01/09 03:09:33;;;;;;;5.87;1.90;;;7.10;99.90;;;;;;5080727;28;20293;-69
2023/01/09 03:12:05;;;;;;;4.90;1.40;;;7.20;99.90;;;;;;5067805;27;21225;-68
2023/01/09 03:14:33;;;;;;;1.80;1.37;;;7.20;99.90;;;;;;5067558;27;20340;-68
2023/01/09 03:17:05;;;;;;;2.00;1.60;;;7.20;99.90;;;;;;5062452;27;20704;-69
2023/01/09 03:19:35;;;;;;;3.00;1.50;;;7.20;99.90;;;;;;5065252;28;20287;-68
2023/01/09 03:22:02;;;;;;;2.80;1.53;;;7.20;99.90;;;;;;5050734;28;20322;-69
2023/01/09 03:24:29;;;;;;;2.20;1.30;;;7.20;99.90;;;;;;5080567;27;20315;-68
2023/01/09 03:26:56;;;;;;;1.83;1.47;;;7.20;99.90;;;;;;5075992;28;20966;-68
2023/01/09 03:29:23;;;;;;;1.33;1.23;;;7.20;99.90;;;;;;5068604;28;20290;-69
2023/01/09 03:31:50;;;;;;;1.60;1.50;;;7.20;99.90;;;;;;5067760;28;20220;-69
2023/01/09 03:34:17;;;;;;;3.40;1.70;;;7.20;99.90;;;;;;5067722;27;20335;-68
2023/01/09 03:36:45;;;;;;;3.90;1.40;;;7.20;99.90;;;;;;5079612;27;21070;-68
2023/01/09 03:39:12;;;;;;;1.70;1.43;;;7.20;99.90;;;;;;5049027;27;21004;-69
2023/01/09 03:41:38;;;;;;;2.43;1.60;;;7.30;99.90;;;;;;5078121;27;20307;-69
2023/01/09 03:44:05;;;;;;;1.80;1.50;;;7.30;99.90;;;;;;5072239;28;20342;-69
2023/01/09 03:46:32;;;;;;;2.90;1.50;;;7.10;99.90;;;;;;5058842;27;20227;-69
2023/01/09 03:48:59;;;;;;;2.20;1.60;;;7.30;99.90;;;;;;5064317;28;20322;-69
2023/01/09 03:51:26;;;;;;;1.30;1.20;;;7.30;99.90;;;;;;5082494;28;20290;-69
2023/01/09 03:53:54;;;;;;;1.60;1.47;;;7.30;99.90;;;;;;5042087;28;22951;-69
2023/01/09 03:56:21;;;;;;;1.60;1.50;;;7.40;99.90;;;;;;5082804;28;20282;-69
2023/01/09 03:58:49;;;;;;;1.90;1.70;;;7.30;99.90;;;;;;5072436;28;20257;-69
2023/01/09 04:01:16;;;;;;;1.90;1.80;;;7.30;99.90;;;;;;5071181;28;20290;-69
2023/01/09 04:03:43;;;;;;;1.70;1.60;;;7.30;99.90;;;;;;5068379;27;20323;-69
2023/01/09 04:06:10;;;;;;;2.70;1.60;;;7.30;99.90;;;;;;5067945;28;20349;-69
2023/01/09 04:08:36;;;;;;;1.83;1.63;;;7.30;99.90;;;;;;5071953;27;20348;-69
2023/01/09 04:11:05;;;;;;;1.77;1.63;;;7.30;99.90;;;;;;5065086;28;20660;-69
2023/01/09 04:13:32;;;;;;;1.60;1.50;;;7.30;99.90;;;;;;5078893;28;20345;-68
2023/01/09 04:15:58;;;;;;;1.60;1.50;;;7.30;99.90;;;;;;5055482;28;20319;-69
2023/01/09 04:18:25;;;;;;;2.43;1.60;;;7.30;99.90;;;;;;5073526;28;20196;-69
2023/01/09 04:20:52;;;;;;;3.10;1.80;;;7.30;99.90;;;;;;5062287;28;20729;-69
2023/01/09 04:23:19;;;;;;;1.50;1.40;;;7.20;99.90;;;;;;5080930;27;20223;-70
2023/01/09 04:25:46;;;;;;;1.90;1.80;;;7.20;99.90;;;;;;5053696;28;20242;-69
2023/01/09 04:28:14;;;;;;;4.63;1.80;;;7.20;99.90;;;;;;5077608;28;20223;-69
2023/01/09 04:30:41;;;;;;;2.03;1.80;;;7.20;99.90;;;;;;5056260;28;20290;-69
2023/01/09 04:33:08;;;;;;;1.50;1.40;;;7.20;99.90;;;;;;5056650;28;22373;-69
2023/01/09 04:35:35;;;;;;;1.60;1.50;;;7.20;99.90;;;;;;5080804;28;20999;-69
2023/01/09 04:38:02;;;;;;;1.77;1.53;;;7.10;99.90;;;;;;5063899;28;20224;-69
2023/01/09 04:40:29;;;;;;;1.80;1.50;;;7.10;99.90;;;;;;5054005;28;20211;-69
2023/01/09 04:42:56;;;;;;;3.57;1.80;;;7.10;99.90;;;;;;5084206;28;20649;-69
2023/01/09 04:45:24;;;;;;;1.87;1.73;;;7.10;99.90;;;;;;5065635;28;21056;-69
2023/01/09 04:47:51;;;;;;;1.97;1.87;;;7.10;99.90;;;;;;5062862;28;20220;-69
2023/01/09 04:50:18;;;;;;;2.03;1.67;;;7.10;99.90;;;;;;5062440;28;20294;-69
2023/01/09 04:52:45;;;;;;;2.80;1.53;;;7.10;99.90;;;;;;5066495;28;20310;-69
2023/01/09 04:55:15;;;;;;;1.77;1.50;;;7.10;99.90;;;;;;5048662;28;20245;-69
2023/01/09 04:57:41;;;;;;;1.53;1.43;;;7.10;99.90;;;;;;5074950;28;20286;-69
2023/01/09 05:00:11;;;;;;;1.50;1.33;;;7.00;99.90;;;;;;5082966;28;20272;-69
2023/01/09 05:02:39;;;;;;;1.40;1.30;;;7.00;99.90;;;;;;5053119;28;20199;-69
2023/01/09 05:05:08;;;;;;;1.07;1.00;;;7.00;99.90;;;;;;5072186;27;20676;-69
2023/01/09 05:07:35;;;;;;;2.43;1.60;;;7.00;99.90;;;;;;5063122;27;20341;-69
2023/01/09 05:10:03;;;;;;;2.03;1.70;;;6.90;99.90;;;;;;5074643;27;20404;-69
2023/01/09 05:12:29;;;;;;;2.93;1.90;;;6.90;99.90;;;;;;5055596;27;21064;-69
2023/01/09 05:14:57;;;;;;;2.00;1.40;;;6.90;99.90;;;;;;5085055;27;20310;-69
2023/01/09 05:17:24;;;;;;;1.73;1.40;;;6.90;99.90;;;;;;5067344;27;20223;-69
2023/01/09 05:19:52;;;;;;;1.90;1.53;;;6.90;99.90;;;;;;5056331;28;20192;-68
2023/01/09 05:22:19;;;;;;;2.13;1.40;;;6.90;99.90;;;;;;5073976;27;20246;-69
2023/01/09 05:24:46;;;;;;;3.13;1.60;;;6.90;99.90;;;;;;5048662;27;20231;-69
2023/01/09 05:27:13;;;;;;;2.40;1.37;;;6.80;99.90;;;;;;5057446;27;20231;-69
2023/01/09 05:29:40;;;;;;;2.57;1.30;;;6.80;99.90;;;;;;5067438;27;20851;-68
2023/01/09 05:32:07;;;;;;;2.33;1.67;;;6.80;99.90;;;;;;5072808;27;20330;-69
2023/01/09 05:34:34;;;;;;;1.70;1.60;;;6.70;99.90;;;;;;5054521;27;20200;-69
2023/01/09 05:37:02;;;;;;;2.70;1.70;;;6.70;99.90;;;;;;5068880;27;20293;-69
2023/01/09 05:39:29;;;;;;;2.20;1.60;;;6.70;99.90;;;;;;5036942;27;20633;-69
2023/01/09 05:41:56;;;;;;;1.97;1.50;;;6.70;99.90;;;;;;5054339;28;20817;-68
2023/01/09 05:44:23;;;;;;;3.97;1.60;;;6.70;99.90;;;;;;5073174;27;20289;-69
2023/01/09 05:46:49;;;;;;;1.60;1.50;;;6.60;99.90;;;;;;5066308;27;21222;-69
2023/01/09 05:49:16;;;;;;;1.47;1.37;;;6.60;99.90;;;;;;5072107;27;20333;-69
2023/01/09 05:51:43;;;;;;;1.80;1.43;;;6.60;99.90;;;;;;5064982;27;20777;-68
2023/01/09 05:54:11;;;;;;;2.10;1.57;;;6.60;99.90;;;;;;5068353;27;20328;-69
2023/01/09 05:56:38;;;;;;;3.67;1.73;;;6.50;99.90;;;;;;5012040;28;20231;-69
2023/01/09 05:59:05;;;;;;;1.60;1.50;;;6.50;99.90;;;;;;5074982;28;20219;-69
2023/01/09 06:01:32;;;;;;;1.20;1.10;;;6.50;99.90;;;;;;5062680;28;20259;-69
2023/01/09 06:03:59;;;;;;;2.30;1.27;;;6.40;99.90;;;;;;5057736;27;20277;-69
2023/01/09 06:06:25;;;;;;;4.80;1.40;;;6.40;99.90;;;;;;5063131;27;20264;-69
2023/01/09 06:08:52;;;;;;;1.50;1.30;;;6.50;99.90;;;;;;5068321;27;20291;-69
2023/01/09 06:11:21;;;;;;;3.60;1.30;;;6.50;99.90;;;;;;5080409;28;21654;-69
2023/01/09 06:13:47;;;;;;;1.93;1.43;;;6.50;99.90;;;;;;5039811;27;20252;-68
2023/01/09 06:16:14;;;;;;;1.57;1.47;;;6.40;99.90;;;;;;5054964;27;20243;-69
2023/01/09 06:18:41;;;;;;;3.60;1.57;;;6.40;99.90;;;;;;5065927;27;20772;-68
2023/01/09 06:21:08;;;;;;;1.50;1.40;;;6.50;99.90;;;;;;5059401;27;20436;-69
2023/01/09 06:23:35;;;;;;;2.43;1.43;;;6.40;99.90;;;;;;5072210;27;20910;-69
2023/01/09 06:26:02;;;;;;;1.93;1.43;;;6.40;99.90;;;;;;5022411;28;20350;-68
2023/01/09 06:28:30;;;;;;;5.43;1.70;;;6.30;99.90;;;;;;5024457;28;20315;-68
2023/01/09 06:30:57;;;;;;;3.87;1.60;;;6.30;99.90;;;;;;5062176;28;20274;-68
2023/01/09 06:33:24;;;;;;;3.40;1.83;;;6.30;99.90;;;;;;5050347;28;20782;-69
2023/01/09 06:35:50;;;;;;;2.97;1.90;;;6.20;99.90;;;;;;5065565;28;20300;-68
2023/01/09 06:38:17;;;;;;;2.30;1.70;;;6.30;99.90;;;;;;5015257;28;20303;-69
2023/01/09 06:40:44;;;;;;;2.77;1.83;;;6.30;99.90;;;;;;5048007;28;20312;-68
2023/01/09 06:43:11;;;;;;;4.77;2.00;;;6.20;99.90;;;;;;5036649;28;20334;-69
2023/01/09 06:45:39;;;;;;;4.40;1.97;;;6.10;99.90;;;;;;5053527;28;20193;-68
2023/01/09 06:48:06;;;;;;;3.73;2.13;;;6.10;99.90;;;;;;5044095;28;20377;-68
2023/01/09 06:50:33;;;;;;;3.23;2.20;;;6.10;99.90;;;;;;5060004;28;20361;-68
2023/01/09 06:53:00;;;;;;;5.67;2.37;;;6.10;99.90;;;;;;5036886;28;20208;-69
2023/01/09 06:55:29;;;;;;;3.10;2.10;;;6.00;99.90;;;;;;5053561;28;20295;-69
2023/01/09 06:57:56;;;;;;;2.97;2.07;;;6.00;99.90;;;;;;5037836;28;20214;-68
2023/01/09 07:00:23;;;;;;;4.40;2.10;;;6.10;99.90;;;;;;5061149;28;20204;-69
2023/01/09 07:02:51;;;;;;;3.37;2.23;;;6.00;99.90;;;;;;5056782;28;20235;-69
2023/01/09 07:05:18;;;;;;;3.20;2.40;;;5.90;99.90;;;;;;5051448;28;20315;-69
2023/01/09 07:07:44;;;;;;;6.20;2.70;;;5.90;99.90;;;;;;5036101;28;20351;-69
2023/01/09 07:10:12;;;;;;;4.63;2.70;;;6.00;99.90;;;;;;5056148;28;20231;-69
2023/01/09 07:12:38;;;;;;;5.10;3.13;;;5.90;99.90;;;;;;5039843;28;20288;-69
2023/01/09 07:15:06;;;;;;;3.60;3.10;;;5.80;99.90;;;;;;5037750;28;20289;-69
2023/01/09 07:17:33;;;;;;;4.17;3.37;;;5.80;99.90;;;;;;5062829;28;20291;-70
2023/01/09 07:20:02;;;;;;;6.03;3.10;;;5.80;99.90;;;;;;5030232;28;20291;-69
2023/01/09 07:22:30;;;;;;;4.60;3.13;;;5.80;99.90;;;;;;5062490;28;20204;-69
2023/01/09 07:24:57;;;;;;;4.80;3.03;;;5.80;99.90;;;;;;5058379;27;20346;-69
2023/01/09 07:27:24;;;;;;;3.47;3.17;;;5.80;99.90;;;;;;5062540;27;20365;-69
2023/01/09 07:29:52;;;;;;;6.97;3.17;;;5.70;99.90;;;;;;5005270;27;20338;-69
2023/01/09 07:32:19;;;;;;;7.83;3.67;;;5.80;99.90;;;;;;5082429;27;20195;-69
2023/01/09 07:34:46;;;;;;;6.07;3.90;;;5.70;99.90;;;;;;5079307;27;20397;-69
2023/01/09 07:37:14;;;;;;;5.30;4.00;;;5.70;99.90;;;;;;5076332;27;20199;-69
2023/01/09 07:39:40;;;;;;;5.80;4.30;;;5.60;99.90;;;;;;5071395;27;20678;-68
2023/01/09 07:42:07;;;;;;;5.73;4.47;;;5.70;99.90;;;;;;5059730;27;20322;-68
2023/01/09 07:44:34;;;;;;;7.67;5.47;;;5.70;99.90;;;;;;5048851;27;20257;-68
2023/01/09 07:47:01;;;;;;;4.87;4.20;;;5.60;99.90;;;;;;5077007;28;20758;-67
2023/01/09 07:49:28;;;;;;;6.20;4.87;;;5.60;99.90;;;;;;5084093;28;20290;-68
2023/01/09 07:51:55;;;;;;;9.13;5.43;;;5.70;99.90;;;;;;5059591;28;20333;-69
2023/01/09 07:54:23;;;;;;;6.90;4.80;;;5.90;99.90;;;;;;5079183;28;20807;-69
2023/01/09 07:56:50;;;;;;;7.03;3.97;;;6.00;99.90;;;;;;5055494;28;20291;-68
2023/01/09 07:59:17;;;;;;;7.57;5.27;;;6.10;99.90;;;;;;5038733;28;20294;-69
2023/01/09 08:01:44;;;;;;;8.40;4.37;;;6.10;99.90;;;;;;5059710;28;20962;-68
2023/01/09 08:04:11;;;;;;;6.27;4.37;;;6.10;99.90;;;;;;5078864;27;21060;-69
2023/01/09 08:06:38;;;;;;;7.93;5.00;;;6.20;99.90;;;;;;5062880;27;20313;-69
2023/01/09 08:09:05;;;;;;;9.90;5.23;;;6.20;99.90;;;;;;5079289;28;20681;-68
2023/01/09 08:11:33;;;;;;;7.30;4.40;;;6.30;99.90;;;;;;5055238;27;20329;-69
2023/01/09 08:14:00;;;;;;;9.17;5.07;;;6.20;99.90;;;;;;5062713;28;20227;-69
2023/01/09 08:16:27;;;;;;;8.63;5.23;;;6.30;99.90;;;;;;5046946;28;20349;-69
2023/01/09 08:18:54;;;;;;;9.17;4.40;;;6.40;99.90;;;;;;5077382;28;20360;-69
2023/01/09 08:21:21;;;;;;;8.23;4.67;;;6.40;99.90;;;;;;5082456;28;20222;-69
2023/01/09 08:23:47;;;;;;;8.43;4.60;;;6.40;99.90;;;;;;5071555;28;20290;-69
2023/01/09 08:26:14;;;;;;;8.17;5.20;;;6.30;99.90;;;;;;5068510;28;20294;-69
2023/01/09 08:28:42;;;;;;;9.33;5.07;;;6.50;99.90;;;;;;5078997;28;20309;-70
2023/01/09 08:31:09;;;;;;;4.93;4.07;;;6.50;99.90;;;;;;5040534;28;20223;-69
2023/01/09 08:33:36;;;;;;;10.20;4.43;;;6.50;99.90;;;;;;5077752;28;20283;-69
2023/01/09 08:36:03;;;;;;;10.50;4.40;;;6.50;99.90;;;;;;5080665;28;20627;-69
2023/01/09 08:38:30;;;;;;;5.13;3.47;;;6.60;99.90;;;;;;5060562;27;20314;-69
2023/01/09 08:40:57;;;;;;;12.47;4.47;;;6.50;99.90;;;;;;5083862;27;20340;-69
2023/01/09 08:49:01;;;;;;;11.43;4.20;;;6.60;99.90;;;;;;5085060;27;20334;-69
2023/01/09 08:51:28;;;;;;;8.70;4.43;;;6.60;99.90;;;;;;5074559;27;20291;-69
2023/01/09 08:53:54;;;;;;;8.43;4.33;;;6.60;99.90;;;;;;5081592;27;20203;-70
2023/01/09 08:56:21;;;;;;;9.33;4.60;;;6.60;99.90;;;;;;5081731;27;20306;-70
2023/01/09 08:58:48;;;;;;;7.17;4.00;;;6.60;99.90;;;;;;5059479;27;20709;-69
2023/01/09 09:01:16;;;;;;;5.53;4.13;;;6.60;99.90;;;;;;5042181;28;20203;-69
2023/01/09 09:03:43;;;;;;;6.57;3.87;;;6.70;99.90;;;;;;5065000;27;20307;-69
2023/01/09 09:06:10;;;;;;;7.13;4.40;;;6.60;99.90;;;;;;5074430;27;20314;-68
2023/01/09 09:08:37;;;;;;;8.87;4.13;;;6.70;99.90;;;;;;5064341;27;20322;-68
2023/01/09 09:11:04;;;;;;;6.67;3.77;;;6.70;99.90;;;;;;5078746;27;20694;-69
2023/01/09 09:13:31;;;;;;;5.83;3.47;;;6.70;99.90;;;;;;5086454;28;20223;-69
2023/01/09 09:15:58;;;;;;;5.93;3.37;;;6.70;99.90;;;;;;5041968;27;20285;-69
2023/01/09 09:18:26;;;;;;;5.40;3.33;;;6.70;99.90;;;;;;5069214;27;20636;-69
2023/01/09 09:20:53;;;;;;;4.57;3.20;;;6.70;99.90;;;;;;5082792;27;20277;-69
2023/01/09 09:23:21;;;;;;;6.97;3.60;;;6.70;99.90;;;;;;5071806;28;20296;-70
2023/01/09 09:25:48;;;;;;;5.97;3.90;;;6.70;99.90;;;;;;5062319;27;20232;-69
2023/01/09 09:28:15;;;;;;;10.20;3.77;;;6.70;99.90;;;;;;5064057;28;20351;-69
2023/01/09 09:30:42;;;;;;;7.43;3.60;;;6.80;99.90;;;;;;5062174;28;20311;-69
2023/01/09 09:33:09;;;;;;;5.67;3.83;;;6.80;99.90;;;;;;5016828;28;20215;-69
2023/01/09 09:35:37;;;;;;;5.30;4.00;;;6.70;99.90;;;;;;5053953;28;20303;-70
2023/01/09 09:38:05;;;;;;;5.97;4.43;;;6.80;99.90;;;;;;5054329;28;20284;-69
2023/01/09 09:40:46;;;;;;;5.93;4.50;;;6.80;99.90;;;;;;5053090;28;20337;-69
2023/01/09 09:46:32;;;;;;;5.20;3.73;;;6.90;99.90;;;;;;5039568;28;20318;-69
2023/01/09 09:49:05;;;;;;;5.33;3.90;;;6.90;99.90;;;;;;5012305;28;20594;-69
2023/01/09 09:51:44;;;;;;;3.73;3.10;;;7.00;99.90;;;;;;5039723;28;20292;-69
2023/01/09 09:54:15;;;;;;;8.40;3.53;;;7.00;99.90;;;;;;5055325;28;20287;-68
2023/01/09 09:56:48;;;;;;;4.90;3.60;;;7.00;99.90;;;;;;5045416;28;20531;-68
2023/01/09 09:59:21;;;;;;;9.00;3.07;;;7.00;99.90;;;;;;5044099;28;20211;-69
2023/01/09 10:01:54;;;;;;;4.27;3.57;;;7.00;99.90;;;;;;5035686;28;20250;-69
2023/01/09 10:04:24;;;;;;;6.87;4.07;;;7.00;99.90;;;;;;5011754;28;20224;-69
2023/01/09 10:06:57;;;;;;;5.73;4.40;;;7.00;99.90;;;;;;5057513;28;20743;-69
2023/01/09 10:09:36;;;;;;;9.40;3.80;;;7.00;99.90;;;;;;5049235;28;20223;-70
2023/01/09 10:12:10;;;;;;;5.93;4.07;;;7.10;99.90;;;;;;5045613;28;20211;-69
2023/01/09 10:14:38;;;;;;;10.67;5.00;;;7.00;99.90;;;;;;5052875;28;20744;-69
2023/01/09 10:17:21;;;;;;;7.30;5.20;;;7.10;99.90;;;;;;5049941;28;20421;-69
2023/01/09 10:20:11;;;;;;;6.57;3.87;;;7.10;99.90;;;;;;5053719;28;20238;-69
2023/01/09 10:22:48;;;;;;;13.70;4.47;;;7.00;99.90;;;;;;5055577;28;20205;-69
2023/01/09 10:25:25;;;;;;;12.00;4.07;;;7.00;99.90;;;;;;5062475;27;20359;-70
2023/01/09 10:28:25;;;;;;;7.93;3.87;;;7.00;99.90;;;;;;5032066;27;20731;-69
2023/01/09 10:30:58;;;;;;;9.70;4.30;;;7.10;99.90;;;;;;5077540;27;20320;-69
2023/01/09 10:33:42;;;;;;;6.10;3.83;;;7.00;99.90;;;;;;5051385;27;21508;-69
2023/01/09 10:36:28;;;;;;;9.57;4.30;;;7.00;99.90;;;;;;5065056;27;20200;-68
2023/01/09 10:39:03;;;;;;;6.90;3.67;;;7.10;99.90;;;;;;5078197;28;20286;-69
2023/01/09 10:41:58;;;;;;;8.50;4.33;;;7.10;99.90;;;;;;5064592;27;21232;-69
2023/01/09 10:44:33;;;;;;;8.67;4.30;;;7.10;99.90;;;;;;5069910;27;20302;-69
2023/01/09 10:47:01;;;;;;;7.60;4.47;;;7.10;99.90;;;;;;5077495;27;20368;-69
2023/01/09 10:49:28;;;;;;;6.90;4.53;;;7.10;99.90;;;;;;5044527;27;22733;-69
2023/01/09 10:52:05;;;;;;;9.30;4.83;;;7.10;99.90;;;;;;5069260;28;20206;-69
2023/01/09 10:54:34;;;;;;;8.63;5.50;;;7.10;99.90;;;;;;5077597;28;20252;-68
2023/01/09 10:57:07;;;;;;;8.13;4.93;;;7.10;99.90;;;;;;5086188;27;20302;-69
2023/01/09 10:59:35;;;;;;;13.20;5.10;;;7.20;99.90;;;;;;5066652;27;20994;-68
2023/01/09 11:02:02;;;;;;;9.77;5.77;;;7.20;99.90;;;;;;5074769;27;20515;-68
2023/01/09 11:04:32;;;;;;;7.97;5.10;;;7.20;99.90;;;;;;5042641;28;20716;-68
2023/01/09 11:07:02;;;;;;;13.00;5.23;;;7.20;99.90;;;;;;5069786;28;20215;-68
2023/01/09 11:09:58;;;;;;;7.30;5.80;;;7.30;99.90;;;;;;5060314;27;20228;-68
2023/01/09 11:12:26;;;;;;;12.33;6.50;;;7.30;99.90;;;;;;5063478;28;21086;-68
2023/01/09 11:14:53;;;;;;;12.33;7.53;;;7.40;99.90;;;;;;5057266;27;20269;-68
2023/01/09 11:17:22;;;;;;;11.10;6.17;;;7.30;99.90;;;;;;5073440;28;20709;-68
2023/01/09 11:20:02;;;;;;;11.83;6.37;;;7.40;99.90;;;;;;5073718;27;20232;-68
2023/01/09 11:22:29;;;;;;;8.00;5.50;;;7.40;99.90;;;;;;5061923;27;20360;-68
2023/01/09 11:25:02;;;;;;;16.63;5.93;;;7.40;99.90;;;;;;5067538;28;20330;-69
2023/01/09 11:27:29;;;;;;;11.17;5.80;;;7.40;99.90;;;;;;5076363;28;20700;-68
2023/01/09 11:30:19;;;;;;;7.73;5.50;;;7.40;99.90;;;;;;5073675;27;20232;-69
2023/01/09 11:32:47;;;;;;;7.17;5.23;;;7.40;99.90;;;;;;5079162;28;21265;-69
2023/01/09 11:35:21;;;;;;;11.23;6.07;;;7.40;99.90;;;;;;5082367;27;21065;-69
2023/01/09 11:37:58;;;;;;;12.50;5.43;;;7.40;99.90;;;;;;5055453;28;20215;-69
2023/01/09 11:40:28;;;;;;;9.33;6.00;;;7.40;99.90;;;;;;5068364;27;20210;-68
2023/01/09 11:43:14;;;;;;;10.40;5.80;;;7.50;99.90;;;;;;5086166;28;20223;-68
2023/01/09 11:45:47;;;;;;;9.03;6.03;;;7.50;99.90;;;;;;5075375;27;20195;-68
2023/01/09 11:48:26;;;;;;;9.63;5.60;;;7.50;99.90;;;;;;5071637;28;21084;-69
2023/01/09 11:50:55;;;;;;;9.60;5.20;;;7.50;99.90;;;;;;5074475;27;20284;-69
2023/01/09 11:53:22;;;;;;;8.10;5.33;;;7.50;99.90;;;;;;5053273;28;20222;-68
2023/01/09 11:55:59;;;;;;;12.37;5.60;;;7.50;99.90;;;;;;5065508;27;20319;-68
2023/01/09 11:58:30;;;;;;;6.33;4.97;;;7.50;99.90;;;;;;5073072;28;20739;-69
2023/01/09 12:01:08;;;;;;;7.97;5.03;;;7.50;99.90;;;;;;5074065;28;20211;-68
2023/01/09 12:03:55;;;;;;;6.67;5.20;;;7.50;99.90;;;;;;5073732;27;20203;-68
2023/01/09 12:06:29;;;;;;;8.33;4.80;;;7.50;99.90;;;;;;5076676;27;20673;-69
2023/01/09 12:09:01;;;;;;;6.70;4.40;;;7.50;99.90;;;;;;5069933;28;20229;-69
2023/01/09 12:11:36;;;;;;;7.97;4.83;;;7.50;99.90;;;;;;5076824;28;20304;-69
2023/01/09 12:14:32;;;;;;;7.53;4.70;;;7.60;99.90;;;;;;5059235;28;20345;-68
2023/01/09 12:17:15;;;;;;;8.87;4.50;;;7.50;99.90;;;;;;5051975;28;20255;-69
2023/01/09 12:19:55;;;;;;;5.57;4.20;;;7.60;99.90;;;;;;5073220;28;20323;-69
2023/01/09 12:22:29;;;;;;;8.97;4.50;;;7.60;99.90;;;;;;5041691;28;20357;-69
2023/01/09 12:25:12;;;;;;;6.83;4.57;;;7.60;99.90;;;;;;5071441;28;20307;-69
2023/01/09 12:27:56;;;;;;;7.47;4.50;;;7.60;99.90;;;;;;5061916;28;20386;-69
2023/01/09 12:30:43;;;;;;;7.00;4.60;;;7.60;99.90;;;;;;5065079;28;20377;-69
2023/01/09 12:33:24;;;;;;;10.63;3.87;;;7.70;99.90;;;;;;5029897;28;20253;-69
2023/01/09 12:35:59;;;;;;;9.83;4.10;;;7.60;99.90;;;;;;5054019;28;20219;-69
2023/01/09 12:38:40;;;;;;;4.20;3.67;;;7.60;99.90;;;;;;5045393;28;20323;-69
2023/01/09 12:41:33;;;;;;;4.83;3.70;;;7.60;99.90;;;;;;5079601;28;20226;-69
2023/01/09 12:44:20;;;;;;;10.67;4.20;;;7.60;99.90;;;;;;5053126;28;21281;-69
2023/01/09 12:46:55;;;;;;;3.37;2.80;;;7.50;99.90;;;;;;5068688;28;21643;-69
2023/01/09 12:49:30;;;;;;;5.50;3.27;;;7.60;99.90;;;;;;5066181;28;20325;-69
2023/01/09 12:52:04;;;;;;;5.93;2.93;;;7.50;99.90;;;;;;5032236;28;20296;-69
2023/01/09 12:54:37;;;;;;;6.50;2.63;;;7.50;99.90;;;;;;5035594;28;20236;-70
2023/01/09 12:57:09;;;;;;;4.77;3.10;;;7.60;99.90;;;;;;5067127;28;20280;-69
2023/01/09 12:59:42;;;;;;;4.87;2.63;;;7.50;99.90;;;;;;5056591;28;20977;-69
2023/01/09 13:02:19;;;;;;;3.87;2.33;;;7.50;99.90;;;;;;5077409;28;20204;-69
2023/01/09 13:04:53;;;;;;;3.40;2.03;;;7.50;99.90;;;;;;5070288;28;20203;-69
2023/01/09 13:07:23;;;;;;;5.70;2.07;;;7.50;99.90;;;;;;5078053;28;20261;-69
2023/01/09 13:09:54;;;;;;;3.53;2.20;;;7.50;99.90;;;;;;5053598;28;20224;-69
2023/01/09 13:12:22;;;;;;;8.43;2.50;;;7.60;99.90;;;;;;5071131;28;20199;-69
2023/01/09 13:14:56;;;;;;;6.67;2.47;;;7.50;99.90;;;;;;5079716;28;20211;-69
2023/01/09 13:17:27;;;;;;;3.13;2.30;;;7.60;99.90;;;;;;5070911;28;20284;-69
2023/01/09 13:19:54;;;;;;;2.80;1.90;;;7.60;99.90;;;;;;5069969;28;20208;-69
2023/01/09 13:22:24;;;;;;;5.50;2.70;;;7.60;99.90;;;;;;5075495;28;20669;-69
2023/01/09 13:25:15;;;;;;;4.97;2.57;;;7.60;99.90;;;;;;5075283;28;20220;-69